Weather observations for the past three days for
Eugene, Mahlon Sweet Field
Metric (Imperial)
Date Time (pdt) Wind (kph) Vis. (km) Weather Sky Cond. Temperature (ºC) Relative Humidity Wind Chill (°C) Heat Index (°C) Pressure Precipitation (cm)
Air Dwpt 6 hour altimeter (cm) sea level (mb) 1 hr 3 hr 6 hr
Max. Min.
07 13:54 Vrbl 6 16.09 A Few Clouds FEW024 17.8 11.1 65% 76.43 1018.9
07 12:54 Vrbl 7 16.09 Mostly Cloudy BKN023 16.1 10 67% 76.48 1019.7
07 11:54 Vrbl 6 16.09 Overcast OVC022 15 10 72% 76.53 1020.2
07 10:54 Calm 14.48 Overcast BKN013 OVC022 13.9 10 14.4 10 78% 76.53 1020.3
07 09:54 Calm 9.66 Fog/Mist OVC011 12.8 10 83% 76.53 1020.4
07 08:54 N 6 8.05 Fog/Mist OVC009 11.7 10 89% 76.56 1020.6
07 07:54 NW 6 4.83 Fog/Mist BKN008 OVC012 11.1 10 93% 76.56 1020.6
07 06:54 Calm 3.22 Fog/Mist BKN002 BKN010 OVC014 10.6 10 96% 76.53 1020.3
07 05:54 Calm 3.22 Fog/Mist OVC003 10.6 10 96% 76.56 1020.4
07 04:54 Calm 4.83 Fog/Mist OVC004 10 10 11.1 10 100% 76.56 1020.7
07 03:54 Calm 8.05 Fog/Mist SCT007 OVC013 10.6 9.4 92% 76.58 1020.8
07 02:54 Calm 16.09 Overcast OVC014 10.6 9.4 92% 76.61 1021.3
07 01:54 NE 7 16.09 Overcast OVC015 10.6 9.4 92% 76.63 1021.7
07 00:54 Calm 16.09 Overcast OVC016 10.6 8.9 89% 76.63 1021.8
06 23:54 W 6 16.09 Overcast OVC019 10.6 8.9 89% 76.63 1021.8
06 22:54 W 11 16.09 A Few Clouds FEW150 11.1 8.3 21.1 10.6 83% 76.63 1021.7
06 21:54 SW 13 16.09 A Few Clouds FEW150 12.2 8.9 80% 76.61 1021.4
06 20:54 SW 13 16.09 A Few Clouds FEW150 FEW250 13.3 9.4 77% 76.58 1021.0
06 19:54 SW 17 16.09 Partly Cloudy FEW200 SCT250 15.6 10.6 72% 76.53 1020.4
06 18:54 SW 22 16.09 Partly Cloudy FEW045 SCT250 17.8 11.1 65% 76.53 1020.2
06 17:54 SW 22 16.09 Fair CLR 19.4 11.7 61% 76.53 1020.1
06 16:54 SW 20 16.09 Partly Cloudy FEW035 SCT250 21.1 12.2 21.7 15 57% 76.5 1019.9
06 15:54 SW 17 16.09 Partly Cloudy FEW030 FEW200 SCT250 21.7 12.2 55% 76.5 1020.0
06 14:54 SW 17 16.09 Partly Cloudy FEW025 SCT250 20 12.2 61% 76.56 1020.5
06 13:54 SW 15 16.09 Partly Cloudy FEW026 SCT250 19.4 12.2 63% 76.58 1020.9
06 12:54 Vrbl 6 16.09 Mostly Cloudy BKN025 18.3 12.2 68% 76.61 1021.3
06 11:54 Vrbl 7 16.09 Mostly Cloudy FEW015 BKN026 16.7 11.7 73% 76.63 1021.6
06 10:54 S 9 16.09 Overcast OVC013 15 11.7 15 10 81% 76.63 1021.5
06 09:54 Vrbl 7 16.09 Overcast OVC008 13.3 11.1 87% 76.61 1021.4
06 08:54 S 7 12.87 Light Drizzle OVC009 12.2 10.6 90% 76.63 1021.5
06 07:54 S 11 16.09 Overcast OVC009 11.7 10 89% 76.61 1021.2
06 06:54 S 11 14.48 Overcast OVC009 11.1 10 93% 76.58 1020.8
06 05:54 SE 9 16.09 Overcast OVC010 11 9 88% 76.53 1020.4
06 03:54 S 11 16.09 Fair CLR 9.4 8.3 93% 8 76.43 1018.9
06 02:54 S 11 16.09 Fair CLR 9.4 8.3 93% 8 76.4 1018.5
06 01:54 SE 7 16.09 Fair CLR 10 9.4 96% 9 76.38 1018.2
06 00:54 E 9 16.09 A Few Clouds FEW026 11.7 10.6 93% 76.35 1017.9
05 23:54 E 7 16.09 Overcast OVC027 12.8 12.2 96% 76.33 1017.6
05 22:54 Calm 16.09 Mostly Cloudy BKN028 11.1 10.6 19.4 10 97% 76.3 1017.2
05 21:54 W 6 16.09 Fair CLR 12.8 11.1 90% 76.25 1016.6
05 20:54 NW 11 16.09 A Few Clouds FEW040 14.4 11.7 84% 76.2 1016.0
05 19:54 N 7 16.09 A Few Clouds FEW040 16.1 12.8 81% 76.17 1015.5
05 18:54 NE 7 16.09 A Few Clouds FEW035 17.8 12.8 73% 76.15 1015.1
05 17:54 NE 7 16.09 A Few Clouds FEW030 18.3 12.8 70% 76.15 1015.0
05 16:54 NE 7 16.09 A Few Clouds FEW030 19.4 12.2 19.4 14.4 63% 76.15 1015.1
05 15:54 Vrbl 6 16.09 Partly Cloudy SCT027 18.3 11.7 66% 76.17 1015.6
05 14:54 E 6 16.09 Mostly Cloudy BKN023 16.7 11.1 70% 76.25 1016.4
05 13:54 NW 9 16.09 Overcast OVC023 16.7 10.6 67% 76.25 1016.5
05 12:54 Calm 16.09 Overcast OVC021 15.6 10 70% 76.28 1016.7
05 11:54 E 9 16.09 Overcast OVC021 15 10.6 75% 76.25 1016.7
05 10:54 Calm 16.09 Overcast OVC021 14.4 9.4 14.4 12.2 72% 76.25 1016.5
05 09:54 Calm 16.09 Overcast OVC019 13.9 9.4 74% 76.23 1016.3
05 08:54 S 6 16.09 Overcast OVC017 13.3 9.4 77% 76.25 1016.4
05 07:54 Calm 16.09 Overcast OVC019 12.8 8.9 77% 76.23 1016.2
05 06:54 Calm 16.09 Overcast OVC019 12.2 8.9 80% 76.2 1015.9
05 05:54 Vrbl 6 16.09 Overcast OVC018 12.2 8.9 80% 76.17 1015.6
05 04:54 W 6 16.09 Overcast OVC016 12.2 8.9 12.8 12.2 80% 76.15 1015.2
05 03:54 SW 7 16.09 Overcast OVC017 12.2 9.4 83% 76.15 1015.2
05 02:54 SW 15 16.09 Overcast OVC015 12.2 9.4 83% 76.12 1014.9
05 01:54 SW 13 16.09 Overcast OVC015 12.2 9.4 83% 76.12 1014.8
05 00:54 SW 13 16.09 Overcast OVC014 12.8 9.4 80% 76.12 1015.0
04 23:54 SW 9 16.09 Overcast OVC014 12.8 9.4 80% 76.12 1014.9
04 22:54 SW 9 16.09 Mostly Cloudy BKN015 BKN031 12.8 9.4 18.9 12.2 80% 76.12 1014.7
04 21:54 SW 17 16.09 Partly Cloudy SCT031 12.8 9.4 80% 76.1 1014.4
04 20:54 SW 22 16.09 Mostly Cloudy BKN032 13.3 10 81% 76.05 1013.8
04 19:54 SW 24 16.09 Partly Cloudy SCT033 SCT250 14.4 10 75% 75.97 1012.9
04 18:54 SW 24 16.09 A Few Clouds FEW050 FEW250 16.1 10.6 70% 75.95 1012.5
04 17:54 SW 24 16.09 A Few Clouds FEW050 FEW250 18.3 11.1 63% 75.95 1012.6
04 16:54 S 24 16.09 A Few Clouds FEW040 FEW200 18.3 11.7 19.4 14.4 66% 75.95 1012.6
04 15:54 S 24 16.09 Partly Cloudy FEW030 SCT250 18.3 11.7 66% 76 1013.0
04 14:54 SW 22 16.09 Partly Cloudy SCT027 SCT250 18.9 11.7 63% 76.05 1013.7
Date Time (pdt) Wind (kph) Vis. (km) Weather Sky Cond. Air Dwpt Max. Min. Relative Humidity Wind Chill (°C) Heat Index (°C) altimeter (cm) sea level (mb) 1 hr 3 hr 6 hr
6 hour
Temperature (ºC) Pressure Precipitation (cm)